sensor_id;sensor_type;location;lat;lon;timestamp;P1;durP1;ratioP1;P2;durP2;ratioP2
26774;SDS011;14362;51.902;7.626;2022-09-20T00:00:11;12.13;;;2.95;;
26774;SDS011;14362;51.902;7.626;2022-09-20T00:04:13;12.07;;;2.72;;
26774;SDS011;14362;51.902;7.626;2022-09-20T00:08:15;11.80;;;3.92;;
26774;SDS011;14362;51.902;7.626;2022-09-20T00:12:16;7.53;;;2.33;;
26774;SDS011;14362;51.902;7.626;2022-09-20T00:16:20;8.18;;;2.60;;
26774;SDS011;14362;51.902;7.626;2022-09-20T00:20:23;14.32;;;3.58;;
26774;SDS011;14362;51.902;7.626;2022-09-20T00:24:25;14.77;;;2.97;;
26774;SDS011;14362;51.902;7.626;2022-09-20T00:28:26;11.20;;;2.75;;
26774;SDS011;14362;51.902;7.626;2022-09-20T00:32:31;10.90;;;2.95;;
26774;SDS011;14362;51.902;7.626;2022-09-20T00:36:32;11.07;;;3.05;;
26774;SDS011;14362;51.902;7.626;2022-09-20T00:40:34;8.35;;;3.25;;
26774;SDS011;14362;51.902;7.626;2022-09-20T00:44:39;16.52;;;3.33;;
26774;SDS011;14362;51.902;7.626;2022-09-20T00:48:44;9.70;;;3.03;;
26774;SDS011;14362;51.902;7.626;2022-09-20T00:52:46;10.52;;;3.92;;
26774;SDS011;14362;51.902;7.626;2022-09-20T00:56:52;12.43;;;3.42;;
26774;SDS011;14362;51.902;7.626;2022-09-20T01:00:53;11.80;;;2.92;;
26774;SDS011;14362;51.902;7.626;2022-09-20T01:04:58;11.73;;;2.90;;
26774;SDS011;14362;51.902;7.626;2022-09-20T01:09:00;10.80;;;2.80;;
26774;SDS011;14362;51.902;7.626;2022-09-20T01:13:03;10.60;;;2.92;;
26774;SDS011;14362;51.902;7.626;2022-09-20T01:17:05;4.65;;;2.30;;
26774;SDS011;14362;51.902;7.626;2022-09-20T01:21:09;10.93;;;3.00;;
26774;SDS011;14362;51.902;7.626;2022-09-20T01:25:13;8.98;;;2.60;;
26774;SDS011;14362;51.902;7.626;2022-09-20T01:29:21;9.57;;;2.63;;
26774;SDS011;14362;51.902;7.626;2022-09-20T01:33:36;8.40;;;2.60;;
26774;SDS011;14362;51.902;7.626;2022-09-20T01:37:45;8.00;;;2.38;;
26774;SDS011;14362;51.902;7.626;2022-09-20T01:41:54;7.28;;;2.63;;
26774;SDS011;14362;51.902;7.626;2022-09-20T01:46:00;6.82;;;2.17;;
26774;SDS011;14362;51.902;7.626;2022-09-20T01:50:11;8.55;;;2.33;;
26774;SDS011;14362;51.902;7.626;2022-09-20T01:54:28;12.18;;;2.47;;
26774;SDS011;14362;51.902;7.626;2022-09-20T01:58:59;4.85;;;2.22;;
26774;SDS011;14362;51.902;7.626;2022-09-20T02:03:39;5.82;;;2.08;;
26774;SDS011;14362;51.902;7.626;2022-09-20T02:07:54;10.18;;;2.40;;
26774;SDS011;14362;51.902;7.626;2022-09-20T02:12:14;9.88;;;3.25;;
26774;SDS011;14362;51.902;7.626;2022-09-20T02:20:48;7.15;;;2.00;;
26774;SDS011;14362;51.902;7.626;2022-09-20T02:24:55;11.50;;;2.20;;
26774;SDS011;14362;51.902;7.626;2022-09-20T02:29:07;8.38;;;2.75;;
26774;SDS011;14362;51.902;7.626;2022-09-20T02:33:29;9.57;;;2.70;;
26774;SDS011;14362;51.902;7.626;2022-09-20T02:37:56;14.63;;;2.87;;
26774;SDS011;14362;51.902;7.626;2022-09-20T02:42:03;9.57;;;2.20;;
26774;SDS011;14362;51.902;7.626;2022-09-20T02:46:12;9.45;;;2.67;;
26774;SDS011;14362;51.902;7.626;2022-09-20T02:50:22;7.55;;;2.33;;
26774;SDS011;14362;51.902;7.626;2022-09-20T02:54:32;9.27;;;2.28;;
26774;SDS011;14362;51.902;7.626;2022-09-20T02:58:45;7.95;;;2.38;;
26774;SDS011;14362;51.902;7.626;2022-09-20T03:02:59;7.20;;;2.45;;
26774;SDS011;14362;51.902;7.626;2022-09-20T03:07:09;8.18;;;2.80;;
26774;SDS011;14362;51.902;7.626;2022-09-20T03:11:25;7.55;;;2.30;;
26774;SDS011;14362;51.902;7.626;2022-09-20T03:15:34;10.90;;;3.28;;
26774;SDS011;14362;51.902;7.626;2022-09-20T03:19:52;7.97;;;2.25;;
26774;SDS011;14362;51.902;7.626;2022-09-20T03:24:07;11.73;;;2.20;;
26774;SDS011;14362;51.902;7.626;2022-09-20T03:28:23;7.32;;;2.13;;
26774;SDS011;14362;51.902;7.626;2022-09-20T03:32:41;8.82;;;2.65;;
26774;SDS011;14362;51.902;7.626;2022-09-20T03:37:02;13.90;;;3.15;;
26774;SDS011;14362;51.902;7.626;2022-09-20T03:45:53;5.70;;;2.08;;
26774;SDS011;14362;51.902;7.626;2022-09-20T03:50:06;12.73;;;3.00;;
26774;SDS011;14362;51.902;7.626;2022-09-20T03:54:33;12.25;;;2.60;;
26774;SDS011;14362;51.902;7.626;2022-09-20T03:58:56;14.65;;;2.47;;
26774;SDS011;14362;51.902;7.626;2022-09-20T04:07:38;7.38;;;2.55;;
26774;SDS011;14362;51.902;7.626;2022-09-20T04:11:52;7.28;;;2.80;;
26774;SDS011;14362;51.902;7.626;2022-09-20T04:16:03;9.35;;;2.72;;
26774;SDS011;14362;51.902;7.626;2022-09-20T04:20:16;10.48;;;2.92;;
26774;SDS011;14362;51.902;7.626;2022-09-20T04:24:26;9.43;;;3.45;;
26774;SDS011;14362;51.902;7.626;2022-09-20T04:28:36;13.65;;;3.00;;
26774;SDS011;14362;51.902;7.626;2022-09-20T04:32:45;14.55;;;3.28;;
26774;SDS011;14362;51.902;7.626;2022-09-20T04:36:58;7.50;;;3.55;;
26774;SDS011;14362;51.902;7.626;2022-09-20T04:41:07;9.95;;;3.25;;
26774;SDS011;14362;51.902;7.626;2022-09-20T04:45:27;8.20;;;2.83;;
26774;SDS011;14362;51.902;7.626;2022-09-20T04:58:59;14.73;;;3.00;;
26774;SDS011;14362;51.902;7.626;2022-09-20T05:03:17;7.85;;;3.50;;
26774;SDS011;14362;51.902;7.626;2022-09-20T05:07:48;10.70;;;3.30;;
26774;SDS011;14362;51.902;7.626;2022-09-20T05:12:21;9.90;;;3.22;;
26774;SDS011;14362;51.902;7.626;2022-09-20T05:16:45;8.07;;;3.10;;
26774;SDS011;14362;51.902;7.626;2022-09-20T05:21:06;6.97;;;2.90;;
26774;SDS011;14362;51.902;7.626;2022-09-20T05:25:20;9.30;;;3.92;;
26774;SDS011;14362;51.902;7.626;2022-09-20T05:29:39;9.90;;;4.10;;
26774;SDS011;14362;51.902;7.626;2022-09-20T05:33:51;10.75;;;3.75;;
26774;SDS011;14362;51.902;7.626;2022-09-20T05:37:59;13.63;;;4.43;;
26774;SDS011;14362;51.902;7.626;2022-09-20T05:42:16;9.32;;;3.90;;
26774;SDS011;14362;51.902;7.626;2022-09-20T05:46:30;8.05;;;4.18;;
26774;SDS011;14362;51.902;7.626;2022-09-20T05:50:38;10.57;;;3.70;;
26774;SDS011;14362;51.902;7.626;2022-09-20T05:54:46;6.72;;;4.00;;
26774;SDS011;14362;51.902;7.626;2022-09-20T05:59:04;13.05;;;4.20;;
26774;SDS011;14362;51.902;7.626;2022-09-20T06:03:20;8.00;;;3.65;;
26774;SDS011;14362;51.902;7.626;2022-09-20T06:07:33;12.25;;;4.40;;
26774;SDS011;14362;51.902;7.626;2022-09-20T06:16:27;8.60;;;3.75;;
26774;SDS011;14362;51.902;7.626;2022-09-20T06:20:43;8.88;;;3.88;;
26774;SDS011;14362;51.902;7.626;2022-09-20T06:24:54;20.90;;;5.82;;
26774;SDS011;14362;51.902;7.626;2022-09-20T06:29:02;11.88;;;4.95;;
26774;SDS011;14362;51.902;7.626;2022-09-20T06:33:12;11.27;;;4.13;;
26774;SDS011;14362;51.902;7.626;2022-09-20T06:37:20;15.38;;;4.30;;
26774;SDS011;14362;51.902;7.626;2022-09-20T06:41:51;9.23;;;3.85;;
26774;SDS011;14362;51.902;7.626;2022-09-20T06:45:53;7.03;;;3.65;;
26774;SDS011;14362;51.902;7.626;2022-09-20T06:49:55;8.90;;;3.70;;
26774;SDS011;14362;51.902;7.626;2022-09-20T06:53:59;7.25;;;3.38;;
26774;SDS011;14362;51.902;7.626;2022-09-20T06:58:01;11.40;;;4.93;;
26774;SDS011;14362;51.902;7.626;2022-09-20T07:02:03;9.32;;;5.03;;
26774;SDS011;14362;51.902;7.626;2022-09-20T07:06:04;11.98;;;6.05;;
26774;SDS011;14362;51.902;7.626;2022-09-20T07:10:09;8.70;;;4.53;;
26774;SDS011;14362;51.902;7.626;2022-09-20T07:14:10;11.43;;;4.07;;
26774;SDS011;14362;51.902;7.626;2022-09-20T07:18:12;8.07;;;4.05;;
26774;SDS011;14362;51.902;7.626;2022-09-20T07:22:13;9.50;;;3.67;;
26774;SDS011;14362;51.902;7.626;2022-09-20T07:26:17;8.82;;;3.28;;
26774;SDS011;14362;51.902;7.626;2022-09-20T07:30:20;10.13;;;2.80;;
26774;SDS011;14362;51.902;7.626;2022-09-20T07:34:21;8.38;;;2.88;;
26774;SDS011;14362;51.902;7.626;2022-09-20T07:38:23;19.35;;;10.48;;
26774;SDS011;14362;51.902;7.626;2022-09-20T07:42:26;9.05;;;3.65;;
26774;SDS011;14362;51.902;7.626;2022-09-20T07:46:28;6.43;;;2.10;;
26774;SDS011;14362;51.902;7.626;2022-09-20T07:50:32;5.45;;;1.77;;
26774;SDS011;14362;51.902;7.626;2022-09-20T07:54:33;6.35;;;1.50;;
26774;SDS011;14362;51.902;7.626;2022-09-20T07:58:36;4.60;;;1.30;;
26774;SDS011;14362;51.902;7.626;2022-09-20T08:02:38;6.75;;;1.80;;
26774;SDS011;14362;51.902;7.626;2022-09-20T08:06:40;5.20;;;2.13;;
26774;SDS011;14362;51.902;7.626;2022-09-20T08:10:43;6.28;;;1.73;;
26774;SDS011;14362;51.902;7.626;2022-09-20T08:14:46;4.72;;;1.17;;
26774;SDS011;14362;51.902;7.626;2022-09-20T08:18:49;2.67;;;1.10;;
26774;SDS011;14362;51.902;7.626;2022-09-20T08:26:54;5.13;;;1.10;;
26774;SDS011;14362;51.902;7.626;2022-09-20T08:31:01;5.40;;;1.20;;
26774;SDS011;14362;51.902;7.626;2022-09-20T08:35:03;4.57;;;1.35;;
26774;SDS011;14362;51.902;7.626;2022-09-20T08:39:04;5.00;;;1.30;;
26774;SDS011;14362;51.902;7.626;2022-09-20T08:43:06;3.83;;;1.08;;
26774;SDS011;14362;51.902;7.626;2022-09-20T08:47:13;4.07;;;1.63;;
26774;SDS011;14362;51.902;7.626;2022-09-20T08:51:19;5.13;;;1.23;;
26774;SDS011;14362;51.902;7.626;2022-09-20T08:55:23;7.05;;;1.40;;
26774;SDS011;14362;51.902;7.626;2022-09-20T08:59:26;5.63;;;1.33;;
26774;SDS011;14362;51.902;7.626;2022-09-20T09:03:30;5.40;;;1.00;;
26774;SDS011;14362;51.902;7.626;2022-09-20T09:07:32;3.42;;;1.00;;
26774;SDS011;14362;51.902;7.626;2022-09-20T09:11:34;3.35;;;0.95;;
26774;SDS011;14362;51.902;7.626;2022-09-20T09:15:49;3.75;;;0.90;;
26774;SDS011;14362;51.902;7.626;2022-09-20T09:19:57;6.10;;;1.30;;
26774;SDS011;14362;51.902;7.626;2022-09-20T09:24:01;5.65;;;1.05;;
26774;SDS011;14362;51.902;7.626;2022-09-20T09:28:11;3.58;;;0.85;;
26774;SDS011;14362;51.902;7.626;2022-09-20T09:32:18;4.57;;;1.10;;
26774;SDS011;14362;51.902;7.626;2022-09-20T09:36:24;4.68;;;1.45;;
26774;SDS011;14362;51.902;7.626;2022-09-20T09:40:27;1.95;;;0.88;;
26774;SDS011;14362;51.902;7.626;2022-09-20T09:44:30;7.13;;;2.30;;
26774;SDS011;14362;51.902;7.626;2022-09-20T09:48:33;6.72;;;1.15;;
26774;SDS011;14362;51.902;7.626;2022-09-20T09:52:35;6.25;;;1.55;;
26774;SDS011;14362;51.902;7.626;2022-09-20T09:56:43;6.28;;;1.13;;
26774;SDS011;14362;51.902;7.626;2022-09-20T10:00:56;3.55;;;0.90;;
26774;SDS011;14362;51.902;7.626;2022-09-20T10:05:02;5.57;;;1.33;;
26774;SDS011;14362;51.902;7.626;2022-09-20T10:09:16;7.15;;;1.98;;
26774;SDS011;14362;51.902;7.626;2022-09-20T10:13:26;4.53;;;1.20;;
26774;SDS011;14362;51.902;7.626;2022-09-20T10:17:40;1.20;;;0.70;;
26774;SDS011;14362;51.902;7.626;2022-09-20T10:21:50;2.75;;;1.00;;
26774;SDS011;14362;51.902;7.626;2022-09-20T10:26:00;4.18;;;1.27;;
26774;SDS011;14362;51.902;7.626;2022-09-20T10:30:09;3.50;;;1.05;;
26774;SDS011;14362;51.902;7.626;2022-09-20T10:38:21;4.55;;;1.00;;
26774;SDS011;14362;51.902;7.626;2022-09-20T10:42:29;2.28;;;1.00;;
26774;SDS011;14362;51.902;7.626;2022-09-20T10:46:55;4.35;;;1.10;;
26774;SDS011;14362;51.902;7.626;2022-09-20T10:51:05;5.88;;;1.30;;
26774;SDS011;14362;51.902;7.626;2022-09-20T10:55:26;12.43;;;1.73;;
26774;SDS011;14362;51.902;7.626;2022-09-20T10:59:37;3.53;;;1.05;;
26774;SDS011;14362;51.902;7.626;2022-09-20T11:08:34;3.58;;;1.00;;
26774;SDS011;14362;51.902;7.626;2022-09-20T11:12:38;3.37;;;1.10;;
26774;SDS011;14362;51.902;7.626;2022-09-20T11:16:45;2.75;;;0.90;;
26774;SDS011;14362;51.902;7.626;2022-09-20T11:20:52;2.95;;;0.85;;
26774;SDS011;14362;51.902;7.626;2022-09-20T11:25:01;3.00;;;0.88;;
26774;SDS011;14362;51.902;7.626;2022-09-20T11:29:17;2.80;;;0.68;;
26774;SDS011;14362;51.902;7.626;2022-09-20T11:33:27;3.25;;;1.13;;
26774;SDS011;14362;51.902;7.626;2022-09-20T11:37:34;3.45;;;0.80;;
26774;SDS011;14362;51.902;7.626;2022-09-20T11:41:39;3.40;;;0.90;;
26774;SDS011;14362;51.902;7.626;2022-09-20T11:45:41;3.55;;;0.80;;
26774;SDS011;14362;51.902;7.626;2022-09-20T11:49:48;1.55;;;0.60;;
26774;SDS011;14362;51.902;7.626;2022-09-20T11:54:14;1.80;;;0.70;;
26774;SDS011;14362;51.902;7.626;2022-09-20T11:58:42;4.40;;;1.00;;
26774;SDS011;14362;51.902;7.626;2022-09-20T12:02:48;2.38;;;0.85;;
26774;SDS011;14362;51.902;7.626;2022-09-20T12:11:00;2.13;;;0.70;;
26774;SDS011;14362;51.902;7.626;2022-09-20T12:15:04;1.13;;;0.60;;
26774;SDS011;14362;51.902;7.626;2022-09-20T12:19:11;2.77;;;0.60;;
26774;SDS011;14362;51.902;7.626;2022-09-20T12:27:54;2.65;;;0.73;;
26774;SDS011;14362;51.902;7.626;2022-09-20T12:31:59;5.28;;;0.85;;
26774;SDS011;14362;51.902;7.626;2022-09-20T12:44:24;2.75;;;0.80;;
26774;SDS011;14362;51.902;7.626;2022-09-20T12:48:31;1.92;;;0.70;;
26774;SDS011;14362;51.902;7.626;2022-09-20T12:52:38;2.33;;;0.52;;
26774;SDS011;14362;51.902;7.626;2022-09-20T13:01:32;2.05;;;0.88;;
26774;SDS011;14362;51.902;7.626;2022-09-20T13:05:39;2.95;;;0.60;;
26774;SDS011;14362;51.902;7.626;2022-09-20T13:13:45;3.35;;;0.85;;
26774;SDS011;14362;51.902;7.626;2022-09-20T13:17:51;1.58;;;0.60;;
26774;SDS011;14362;51.902;7.626;2022-09-20T13:21:56;2.47;;;0.77;;
26774;SDS011;14362;51.902;7.626;2022-09-20T13:26:01;4.47;;;1.25;;
26774;SDS011;14362;51.902;7.626;2022-09-20T13:30:14;3.60;;;0.80;;
26774;SDS011;14362;51.902;7.626;2022-09-20T13:34:21;3.22;;;0.80;;
26774;SDS011;14362;51.902;7.626;2022-09-20T13:38:24;3.42;;;1.13;;
26774;SDS011;14362;51.902;7.626;2022-09-20T13:42:29;3.53;;;0.73;;
26774;SDS011;14362;51.902;7.626;2022-09-20T13:46:34;2.67;;;0.80;;
26774;SDS011;14362;51.902;7.626;2022-09-20T13:50:44;1.38;;;0.57;;
26774;SDS011;14362;51.902;7.626;2022-09-20T13:54:46;4.10;;;0.80;;
26774;SDS011;14362;51.902;7.626;2022-09-20T13:58:47;5.25;;;1.05;;
26774;SDS011;14362;51.902;7.626;2022-09-20T14:02:50;2.25;;;0.88;;
26774;SDS011;14362;51.902;7.626;2022-09-20T14:06:55;2.50;;;0.80;;
26774;SDS011;14362;51.902;7.626;2022-09-20T14:11:02;2.85;;;0.75;;
26774;SDS011;14362;51.902;7.626;2022-09-20T14:15:06;3.40;;;0.77;;
26774;SDS011;14362;51.902;7.626;2022-09-20T14:19:10;3.63;;;0.90;;
26774;SDS011;14362;51.902;7.626;2022-09-20T14:23:19;2.53;;;0.70;;
26774;SDS011;14362;51.902;7.626;2022-09-20T14:27:22;2.95;;;0.90;;
26774;SDS011;14362;51.902;7.626;2022-09-20T14:31:24;0.88;;;0.60;;
26774;SDS011;14362;51.902;7.626;2022-09-20T14:35:28;5.15;;;1.02;;
26774;SDS011;14362;51.902;7.626;2022-09-20T14:39:32;3.13;;;0.70;;
26774;SDS011;14362;51.902;7.626;2022-09-20T14:43:45;2.67;;;0.70;;
26774;SDS011;14362;51.902;7.626;2022-09-20T14:47:55;4.95;;;1.15;;
26774;SDS011;14362;51.902;7.626;2022-09-20T14:56:39;3.15;;;0.82;;
26774;SDS011;14362;51.902;7.626;2022-09-20T15:00:45;3.47;;;0.80;;
26774;SDS011;14362;51.902;7.626;2022-09-20T15:04:50;4.07;;;0.80;;
26774;SDS011;14362;51.902;7.626;2022-09-20T15:08:53;4.43;;;0.90;;
26774;SDS011;14362;51.902;7.626;2022-09-20T15:12:56;3.55;;;0.80;;
26774;SDS011;14362;51.902;7.626;2022-09-20T15:16:57;1.75;;;0.60;;
26774;SDS011;14362;51.902;7.626;2022-09-20T15:20:59;2.13;;;0.90;;
26774;SDS011;14362;51.902;7.626;2022-09-20T15:25:01;2.80;;;0.70;;
26774;SDS011;14362;51.902;7.626;2022-09-20T15:29:04;2.90;;;0.90;;
26774;SDS011;14362;51.902;7.626;2022-09-20T15:37:09;2.60;;;1.02;;
26774;SDS011;14362;51.902;7.626;2022-09-20T15:41:11;1.65;;;0.70;;
26774;SDS011;14362;51.902;7.626;2022-09-20T15:45:13;3.17;;;0.80;;
26774;SDS011;14362;51.902;7.626;2022-09-20T15:49:15;3.40;;;0.93;;
26774;SDS011;14362;51.902;7.626;2022-09-20T15:53:16;2.45;;;0.60;;
26774;SDS011;14362;51.902;7.626;2022-09-20T15:57:18;2.85;;;0.70;;
26774;SDS011;14362;51.902;7.626;2022-09-20T16:01:21;2.55;;;0.90;;
26774;SDS011;14362;51.902;7.626;2022-09-20T16:05:22;3.38;;;0.93;;
26774;SDS011;14362;51.902;7.626;2022-09-20T16:09:24;3.92;;;1.10;;
26774;SDS011;14362;51.902;7.626;2022-09-20T16:13:25;3.63;;;0.60;;
26774;SDS011;14362;51.902;7.626;2022-09-20T16:17:29;2.85;;;0.82;;
26774;SDS011;14362;51.902;7.626;2022-09-20T16:22:02;3.08;;;0.70;;
26774;SDS011;14362;51.902;7.626;2022-09-20T16:26:04;2.28;;;0.88;;
26774;SDS011;14362;51.902;7.626;2022-09-20T16:30:12;4.00;;;0.80;;
26774;SDS011;14362;51.902;7.626;2022-09-20T16:34:16;5.45;;;1.30;;
26774;SDS011;14362;51.902;7.626;2022-09-20T16:38:18;2.67;;;0.90;;
26774;SDS011;14362;51.902;7.626;2022-09-20T16:42:21;4.95;;;1.10;;
26774;SDS011;14362;51.902;7.626;2022-09-20T16:46:22;1.75;;;0.80;;
26774;SDS011;14362;51.902;7.626;2022-09-20T16:50:27;1.58;;;0.98;;
26774;SDS011;14362;51.902;7.626;2022-09-20T16:54:29;2.65;;;1.10;;
26774;SDS011;14362;51.902;7.626;2022-09-20T16:58:30;1.75;;;0.80;;
26774;SDS011;14362;51.902;7.626;2022-09-20T17:02:32;1.88;;;0.90;;
26774;SDS011;14362;51.902;7.626;2022-09-20T17:06:36;3.05;;;1.25;;
26774;SDS011;14362;51.902;7.626;2022-09-20T17:10:38;3.65;;;1.05;;
26774;SDS011;14362;51.902;7.626;2022-09-20T17:14:40;4.35;;;1.20;;
26774;SDS011;14362;51.902;7.626;2022-09-20T17:18:42;4.72;;;1.52;;
26774;SDS011;14362;51.902;7.626;2022-09-20T17:22:45;3.22;;;1.40;;
26774;SDS011;14362;51.902;7.626;2022-09-20T17:26:48;2.42;;;1.60;;
26774;SDS011;14362;51.902;7.626;2022-09-20T17:30:50;2.25;;;1.20;;
26774;SDS011;14362;51.902;7.626;2022-09-20T17:34:51;4.25;;;1.83;;
26774;SDS011;14362;51.902;7.626;2022-09-20T17:38:54;3.55;;;1.70;;
26774;SDS011;14362;51.902;7.626;2022-09-20T17:42:56;3.30;;;1.40;;
26774;SDS011;14362;51.902;7.626;2022-09-20T17:46:58;3.28;;;1.73;;
26774;SDS011;14362;51.902;7.626;2022-09-20T17:50:59;2.97;;;1.77;;
26774;SDS011;14362;51.902;7.626;2022-09-20T17:55:03;5.65;;;2.70;;
26774;SDS011;14362;51.902;7.626;2022-09-20T17:59:05;7.32;;;3.28;;
26774;SDS011;14362;51.902;7.626;2022-09-20T18:03:07;6.85;;;3.40;;
26774;SDS011;14362;51.902;7.626;2022-09-20T18:07:08;7.20;;;3.20;;
26774;SDS011;14362;51.902;7.626;2022-09-20T18:11:11;5.95;;;3.30;;
26774;SDS011;14362;51.902;7.626;2022-09-20T18:15:13;7.53;;;3.00;;
26774;SDS011;14362;51.902;7.626;2022-09-20T18:19:14;6.88;;;4.07;;
26774;SDS011;14362;51.902;7.626;2022-09-20T18:23:16;9.25;;;5.25;;
26774;SDS011;14362;51.902;7.626;2022-09-20T18:27:19;9.73;;;7.20;;
26774;SDS011;14362;51.902;7.626;2022-09-20T18:31:20;13.25;;;8.52;;
26774;SDS011;14362;51.902;7.626;2022-09-20T18:35:22;11.23;;;8.05;;
26774;SDS011;14362;51.902;7.626;2022-09-20T18:39:24;9.98;;;7.15;;
26774;SDS011;14362;51.902;7.626;2022-09-20T18:43:28;10.65;;;5.75;;
26774;SDS011;14362;51.902;7.626;2022-09-20T18:47:31;7.53;;;5.90;;
26774;SDS011;14362;51.902;7.626;2022-09-20T18:51:32;7.90;;;5.43;;
26774;SDS011;14362;51.902;7.626;2022-09-20T18:55:34;9.43;;;6.13;;
26774;SDS011;14362;51.902;7.626;2022-09-20T18:59:37;7.72;;;5.22;;
26774;SDS011;14362;51.902;7.626;2022-09-20T19:03:44;7.78;;;4.97;;
26774;SDS011;14362;51.902;7.626;2022-09-20T19:12:02;5.75;;;4.40;;
26774;SDS011;14362;51.902;7.626;2022-09-20T19:16:10;5.93;;;4.25;;
26774;SDS011;14362;51.902;7.626;2022-09-20T19:20:18;5.95;;;4.22;;
26774;SDS011;14362;51.902;7.626;2022-09-20T19:24:36;6.32;;;3.70;;
26774;SDS011;14362;51.902;7.626;2022-09-20T19:28:48;7.22;;;3.33;;
26774;SDS011;14362;51.902;7.626;2022-09-20T19:32:51;4.10;;;3.03;;
26774;SDS011;14362;51.902;7.626;2022-09-20T19:36:56;5.43;;;3.25;;
26774;SDS011;14362;51.902;7.626;2022-09-20T19:41:10;5.88;;;2.80;;
26774;SDS011;14362;51.902;7.626;2022-09-20T19:45:28;4.78;;;2.75;;
26774;SDS011;14362;51.902;7.626;2022-09-20T19:49:40;5.57;;;2.90;;
26774;SDS011;14362;51.902;7.626;2022-09-20T19:53:48;4.70;;;2.47;;
26774;SDS011;14362;51.902;7.626;2022-09-20T19:57:52;4.45;;;2.63;;
26774;SDS011;14362;51.902;7.626;2022-09-20T20:01:55;4.30;;;2.15;;
26774;SDS011;14362;51.902;7.626;2022-09-20T20:05:59;4.35;;;2.38;;
26774;SDS011;14362;51.902;7.626;2022-09-20T20:10:05;4.50;;;2.50;;
26774;SDS011;14362;51.902;7.626;2022-09-20T20:14:16;4.00;;;2.70;;
26774;SDS011;14362;51.902;7.626;2022-09-20T20:18:24;7.57;;;2.78;;
26774;SDS011;14362;51.902;7.626;2022-09-20T20:22:49;3.70;;;2.25;;
26774;SDS011;14362;51.902;7.626;2022-09-20T20:27:07;4.65;;;2.67;;
26774;SDS011;14362;51.902;7.626;2022-09-20T20:31:09;4.25;;;2.13;;
26774;SDS011;14362;51.902;7.626;2022-09-20T20:35:11;2.67;;;1.83;;
26774;SDS011;14362;51.902;7.626;2022-09-20T20:39:15;5.60;;;2.58;;
26774;SDS011;14362;51.902;7.626;2022-09-20T20:43:16;3.65;;;2.38;;
26774;SDS011;14362;51.902;7.626;2022-09-20T20:47:18;6.90;;;3.90;;
26774;SDS011;14362;51.902;7.626;2022-09-20T20:51:20;4.07;;;2.58;;
26774;SDS011;14362;51.902;7.626;2022-09-20T20:55:23;4.32;;;3.05;;
26774;SDS011;14362;51.902;7.626;2022-09-20T20:59:25;9.63;;;5.25;;
26774;SDS011;14362;51.902;7.626;2022-09-20T21:03:26;8.02;;;4.88;;
26774;SDS011;14362;51.902;7.626;2022-09-20T21:07:29;8.50;;;4.85;;
26774;SDS011;14362;51.902;7.626;2022-09-20T21:11:33;7.65;;;4.80;;
26774;SDS011;14362;51.902;7.626;2022-09-20T21:15:35;7.97;;;4.90;;
26774;SDS011;14362;51.902;7.626;2022-09-20T21:19:37;5.22;;;4.20;;
26774;SDS011;14362;51.902;7.626;2022-09-20T21:23:38;6.18;;;4.38;;
26774;SDS011;14362;51.902;7.626;2022-09-20T21:27:41;7.15;;;4.13;;
26774;SDS011;14362;51.902;7.626;2022-09-20T21:31:43;11.68;;;3.97;;
26774;SDS011;14362;51.902;7.626;2022-09-20T21:35:46;5.30;;;3.90;;
26774;SDS011;14362;51.902;7.626;2022-09-20T21:39:47;4.80;;;3.50;;
26774;SDS011;14362;51.902;7.626;2022-09-20T21:43:51;5.30;;;3.85;;
26774;SDS011;14362;51.902;7.626;2022-09-20T21:47:54;5.40;;;3.45;;
26774;SDS011;14362;51.902;7.626;2022-09-20T21:51:55;5.15;;;3.30;;
26774;SDS011;14362;51.902;7.626;2022-09-20T21:55:57;6.65;;;3.20;;
26774;SDS011;14362;51.902;7.626;2022-09-20T22:00:00;5.05;;;3.55;;
26774;SDS011;14362;51.902;7.626;2022-09-20T22:04:03;6.40;;;3.83;;
26774;SDS011;14362;51.902;7.626;2022-09-20T22:08:05;7.57;;;3.80;;
26774;SDS011;14362;51.902;7.626;2022-09-20T22:12:07;5.15;;;3.55;;
26774;SDS011;14362;51.902;7.626;2022-09-20T22:16:10;4.78;;;3.72;;
26774;SDS011;14362;51.902;7.626;2022-09-20T22:20:13;4.83;;;3.40;;
26774;SDS011;14362;51.902;7.626;2022-09-20T22:24:14;5.07;;;3.63;;
26774;SDS011;14362;51.902;7.626;2022-09-20T22:28:17;5.85;;;3.80;;
26774;SDS011;14362;51.902;7.626;2022-09-20T22:32:19;5.55;;;3.58;;
26774;SDS011;14362;51.902;7.626;2022-09-20T22:36:22;6.75;;;3.33;;
26774;SDS011;14362;51.902;7.626;2022-09-20T22:40:25;5.40;;;3.17;;
26774;SDS011;14362;51.902;7.626;2022-09-20T22:44:26;6.18;;;3.90;;
26774;SDS011;14362;51.902;7.626;2022-09-20T22:48:29;4.65;;;3.67;;
26774;SDS011;14362;51.902;7.626;2022-09-20T22:52:31;4.22;;;3.58;;
26774;SDS011;14362;51.902;7.626;2022-09-20T22:56:33;4.40;;;3.25;;
26774;SDS011;14362;51.902;7.626;2022-09-20T23:00:35;4.35;;;3.50;;
26774;SDS011;14362;51.902;7.626;2022-09-20T23:04:38;4.93;;;3.75;;
26774;SDS011;14362;51.902;7.626;2022-09-20T23:08:39;4.97;;;3.28;;
26774;SDS011;14362;51.902;7.626;2022-09-20T23:12:41;5.40;;;3.63;;
26774;SDS011;14362;51.902;7.626;2022-09-20T23:16:43;4.30;;;3.30;;
26774;SDS011;14362;51.902;7.626;2022-09-20T23:20:46;5.35;;;3.70;;
26774;SDS011;14362;51.902;7.626;2022-09-20T23:24:47;6.53;;;3.30;;
26774;SDS011;14362;51.902;7.626;2022-09-20T23:28:51;5.47;;;3.33;;
26774;SDS011;14362;51.902;7.626;2022-09-20T23:32:53;4.50;;;3.53;;
26774;SDS011;14362;51.902;7.626;2022-09-20T23:36:56;5.25;;;3.90;;
26774;SDS011;14362;51.902;7.626;2022-09-20T23:41:00;6.55;;;3.67;;
26774;SDS011;14362;51.902;7.626;2022-09-20T23:45:02;4.45;;;3.53;;
26774;SDS011;14362;51.902;7.626;2022-09-20T23:49:04;5.50;;;3.35;;
26774;SDS011;14362;51.902;7.626;2022-09-20T23:53:09;5.00;;;3.03;;
26774;SDS011;14362;51.902;7.626;2022-09-20T23:57:10;6.05;;;3.50;;
